sensor_id;sensor_type;location;lat;lon;timestamp;temperature;humidity
14485;DHT22;7328;50.812;4.422;2022-10-31T00:00:51;-12.20;99.90
14485;DHT22;7328;50.812;4.422;2022-10-31T00:03:17;-10.60;99.90
14485;DHT22;7328;50.812;4.422;2022-10-31T00:05:45;-13.00;99.90
14485;DHT22;7328;50.812;4.422;2022-10-31T00:08:11;-12.70;99.90
14485;DHT22;7328;50.812;4.422;2022-10-31T00:10:40;-14.00;99.90
14485;DHT22;7328;50.812;4.422;2022-10-31T00:13:07;-12.80;99.90
14485;DHT22;7328;50.812;4.422;2022-10-31T00:15:35;-11.10;99.90
14485;DHT22;7328;50.812;4.422;2022-10-31T00:18:02;-12.40;99.90
14485;DHT22;7328;50.812;4.422;2022-10-31T00:20:28;-14.40;99.90
14485;DHT22;7328;50.812;4.422;2022-10-31T00:22:54;-15.20;99.90
14485;DHT22;7328;50.812;4.422;2022-10-31T00:25:22;-13.40;99.90
14485;DHT22;7328;50.812;4.422;2022-10-31T00:27:48;-12.60;99.90
14485;DHT22;7328;50.812;4.422;2022-10-31T00:30:13;-13.00;99.90
14485;DHT22;7328;50.812;4.422;2022-10-31T00:32:39;-15.40;99.90
14485;DHT22;7328;50.812;4.422;2022-10-31T00:35:05;-13.80;99.90
14485;DHT22;7328;50.812;4.422;2022-10-31T00:37:31;-12.70;99.90
14485;DHT22;7328;50.812;4.422;2022-10-31T00:39:57;-13.50;99.90
14485;DHT22;7328;50.812;4.422;2022-10-31T00:42:22;-14.50;99.90
14485;DHT22;7328;50.812;4.422;2022-10-31T00:44:48;-13.60;99.90
14485;DHT22;7328;50.812;4.422;2022-10-31T00:47:14;-11.70;99.90
14485;DHT22;7328;50.812;4.422;2022-10-31T00:49:40;-11.40;99.90
14485;DHT22;7328;50.812;4.422;2022-10-31T00:52:05;-14.50;99.90
14485;DHT22;7328;50.812;4.422;2022-10-31T00:54:31;-14.00;99.90
14485;DHT22;7328;50.812;4.422;2022-10-31T00:56:57;-12.30;99.90
14485;DHT22;7328;50.812;4.422;2022-10-31T00:59:23;-11.80;99.90
14485;DHT22;7328;50.812;4.422;2022-10-31T01:01:49;-13.00;99.90
14485;DHT22;7328;50.812;4.422;2022-10-31T01:04:15;-13.30;99.90
14485;DHT22;7328;50.812;4.422;2022-10-31T01:06:40;-12.20;99.90
14485;DHT22;7328;50.812;4.422;2022-10-31T01:09:06;-16.00;99.90
14485;DHT22;7328;50.812;4.422;2022-10-31T01:11:32;-14.40;99.90
14485;DHT22;7328;50.812;4.422;2022-10-31T01:13:58;-13.30;99.90
14485;DHT22;7328;50.812;4.422;2022-10-31T01:16:25;-13.60;99.90
14485;DHT22;7328;50.812;4.422;2022-10-31T01:18:51;-12.40;99.90
14485;DHT22;7328;50.812;4.422;2022-10-31T01:21:23;-11.70;99.90
14485;DHT22;7328;50.812;4.422;2022-10-31T01:23:50;-12.20;99.90
14485;DHT22;7328;50.812;4.422;2022-10-31T01:26:18;-11.90;99.90
14485;DHT22;7328;50.812;4.422;2022-10-31T01:31:16;-12.90;99.90
14485;DHT22;7328;50.812;4.422;2022-10-31T01:33:42;-12.40;99.90
14485;DHT22;7328;50.812;4.422;2022-10-31T01:36:17;-13.10;99.90
14485;DHT22;7328;50.812;4.422;2022-10-31T01:38:43;-12.20;99.90
14485;DHT22;7328;50.812;4.422;2022-10-31T01:41:11;-12.90;99.90
14485;DHT22;7328;50.812;4.422;2022-10-31T01:43:56;-12.60;99.90
14485;DHT22;7328;50.812;4.422;2022-10-31T01:49:40;-13.30;99.90
14485;DHT22;7328;50.812;4.422;2022-10-31T01:54:37;-14.10;99.90
14485;DHT22;7328;50.812;4.422;2022-10-31T01:57:06;-14.30;99.90
14485;DHT22;7328;50.812;4.422;2022-10-31T01:59:38;-14.90;99.90
14485;DHT22;7328;50.812;4.422;2022-10-31T02:02:05;-15.30;99.90
14485;DHT22;7328;50.812;4.422;2022-10-31T02:04:31;-15.80;99.90
14485;DHT22;7328;50.812;4.422;2022-10-31T02:07:05;-13.30;99.90
14485;DHT22;7328;50.812;4.422;2022-10-31T02:09:31;-12.80;99.90
14485;DHT22;7328;50.812;4.422;2022-10-31T02:11:59;-13.40;99.90
14485;DHT22;7328;50.812;4.422;2022-10-31T02:14:28;-14.80;99.90
14485;DHT22;7328;50.812;4.422;2022-10-31T02:16:55;-16.40;99.90
14485;DHT22;7328;50.812;4.422;2022-10-31T02:19:42;-17.20;99.90
14485;DHT22;7328;50.812;4.422;2022-10-31T02:22:57;-14.90;99.90
14485;DHT22;7328;50.812;4.422;2022-10-31T02:46:50;-11.60;99.90
14485;DHT22;7328;50.812;4.422;2022-10-31T02:50:04;-12.20;99.90
14485;DHT22;7328;50.812;4.422;2022-10-31T02:52:30;-14.10;99.90
14485;DHT22;7328;50.812;4.422;2022-10-31T02:54:57;-15.60;99.90
14485;DHT22;7328;50.812;4.422;2022-10-31T02:57:31;-16.20;99.90
14485;DHT22;7328;50.812;4.422;2022-10-31T03:00:08;-15.40;99.90
14485;DHT22;7328;50.812;4.422;2022-10-31T03:05:40;-13.50;99.90
14485;DHT22;7328;50.812;4.422;2022-10-31T03:08:29;-14.30;99.90
14485;DHT22;7328;50.812;4.422;2022-10-31T03:10:59;-13.90;99.90
14485;DHT22;7328;50.812;4.422;2022-10-31T03:21:16;-12.70;99.90
14485;DHT22;7328;50.812;4.422;2022-10-31T03:23:44;-15.10;99.90
14485;DHT22;7328;50.812;4.422;2022-10-31T03:26:12;-13.90;99.90
14485;DHT22;7328;50.812;4.422;2022-10-31T03:28:57;-14.60;99.90
14485;DHT22;7328;50.812;4.422;2022-10-31T03:31:29;-14.70;99.90
14485;DHT22;7328;50.812;4.422;2022-10-31T03:33:58;-16.10;99.90
14485;DHT22;7328;50.812;4.422;2022-10-31T03:36:26;-12.90;99.90
14485;DHT22;7328;50.812;4.422;2022-10-31T03:38:54;-17.50;99.90
14485;DHT22;7328;50.812;4.422;2022-10-31T03:41:24;-16.60;99.90
14485;DHT22;7328;50.812;4.422;2022-10-31T03:43:57;-15.60;99.90
14485;DHT22;7328;50.812;4.422;2022-10-31T03:46:24;-17.00;99.90
14485;DHT22;7328;50.812;4.422;2022-10-31T03:48:50;-16.60;99.90
14485;DHT22;7328;50.812;4.422;2022-10-31T03:51:26;-17.90;99.90
14485;DHT22;7328;50.812;4.422;2022-10-31T03:54:02;-19.40;99.90
14485;DHT22;7328;50.812;4.422;2022-10-31T03:56:42;-19.50;99.90
14485;DHT22;7328;50.812;4.422;2022-10-31T03:59:25;-18.90;99.90
14485;DHT22;7328;50.812;4.422;2022-10-31T04:01:57;-18.20;99.90
14485;DHT22;7328;50.812;4.422;2022-10-31T04:04:26;-18.50;99.90
14485;DHT22;7328;50.812;4.422;2022-10-31T04:06:54;-18.10;99.90
14485;DHT22;7328;50.812;4.422;2022-10-31T04:09:22;-17.70;99.90
14485;DHT22;7328;50.812;4.422;2022-10-31T04:11:53;-16.40;99.90
14485;DHT22;7328;50.812;4.422;2022-10-31T04:14:22;-17.50;99.90
14485;DHT22;7328;50.812;4.422;2022-10-31T04:16:49;-17.00;99.90
14485;DHT22;7328;50.812;4.422;2022-10-31T04:19:15;-18.20;99.90
14485;DHT22;7328;50.812;4.422;2022-10-31T04:21:41;-15.80;99.90
14485;DHT22;7328;50.812;4.422;2022-10-31T04:24:10;-16.00;99.90
14485;DHT22;7328;50.812;4.422;2022-10-31T04:26:36;-16.70;99.90
14485;DHT22;7328;50.812;4.422;2022-10-31T04:29:02;-16.60;99.90
14485;DHT22;7328;50.812;4.422;2022-10-31T04:31:28;-15.40;99.90
14485;DHT22;7328;50.812;4.422;2022-10-31T04:33:54;-16.40;99.90
14485;DHT22;7328;50.812;4.422;2022-10-31T04:36:20;-18.10;99.90
14485;DHT22;7328;50.812;4.422;2022-10-31T04:38:46;-17.60;99.90
14485;DHT22;7328;50.812;4.422;2022-10-31T04:41:11;-18.40;99.90
14485;DHT22;7328;50.812;4.422;2022-10-31T04:43:37;-18.90;99.90
14485;DHT22;7328;50.812;4.422;2022-10-31T04:46:03;-17.40;99.90
14485;DHT22;7328;50.812;4.422;2022-10-31T04:48:29;-17.40;99.90
14485;DHT22;7328;50.812;4.422;2022-10-31T04:51:02;-18.60;99.90
14485;DHT22;7328;50.812;4.422;2022-10-31T04:53:29;-16.90;99.90
14485;DHT22;7328;50.812;4.422;2022-10-31T04:55:55;-15.90;99.90
14485;DHT22;7328;50.812;4.422;2022-10-31T04:58:22;-12.70;99.90
14485;DHT22;7328;50.812;4.422;2022-10-31T05:00:52;-15.20;99.90
14485;DHT22;7328;50.812;4.422;2022-10-31T05:03:18;-14.20;99.90
14485;DHT22;7328;50.812;4.422;2022-10-31T05:05:44;-13.80;99.90
14485;DHT22;7328;50.812;4.422;2022-10-31T05:08:10;-13.60;99.90
14485;DHT22;7328;50.812;4.422;2022-10-31T05:10:35;-11.50;99.90
14485;DHT22;7328;50.812;4.422;2022-10-31T05:13:03;-12.40;99.90
14485;DHT22;7328;50.812;4.422;2022-10-31T05:15:29;-11.10;99.90
14485;DHT22;7328;50.812;4.422;2022-10-31T05:17:55;-12.00;99.90
14485;DHT22;7328;50.812;4.422;2022-10-31T05:20:27;-12.40;99.90
14485;DHT22;7328;50.812;4.422;2022-10-31T05:22:55;-12.70;99.90
14485;DHT22;7328;50.812;4.422;2022-10-31T05:25:23;-12.50;99.90
14485;DHT22;7328;50.812;4.422;2022-10-31T05:27:50;-11.90;99.90
14485;DHT22;7328;50.812;4.422;2022-10-31T05:30:20;-10.30;99.90
14485;DHT22;7328;50.812;4.422;2022-10-31T05:32:48;-12.10;99.90
14485;DHT22;7328;50.812;4.422;2022-10-31T05:35:20;-12.90;99.90
14485;DHT22;7328;50.812;4.422;2022-10-31T05:37:46;-14.30;99.90
14485;DHT22;7328;50.812;4.422;2022-10-31T05:40:13;-14.80;99.90
14485;DHT22;7328;50.812;4.422;2022-10-31T05:42:41;-14.70;99.90
14485;DHT22;7328;50.812;4.422;2022-10-31T05:45:08;-15.90;99.90
14485;DHT22;7328;50.812;4.422;2022-10-31T05:47:34;-16.30;99.90
14485;DHT22;7328;50.812;4.422;2022-10-31T05:50:00;-16.60;99.90
14485;DHT22;7328;50.812;4.422;2022-10-31T05:52:26;-16.40;99.90
14485;DHT22;7328;50.812;4.422;2022-10-31T05:54:52;-15.50;99.90
14485;DHT22;7328;50.812;4.422;2022-10-31T05:57:17;-15.10;99.90
14485;DHT22;7328;50.812;4.422;2022-10-31T05:59:43;-14.90;99.90
14485;DHT22;7328;50.812;4.422;2022-10-31T06:02:09;-15.40;99.90
14485;DHT22;7328;50.812;4.422;2022-10-31T06:04:35;-18.10;99.90
14485;DHT22;7328;50.812;4.422;2022-10-31T06:07:00;-19.50;99.90
14485;DHT22;7328;50.812;4.422;2022-10-31T06:09:26;-16.10;99.90
14485;DHT22;7328;50.812;4.422;2022-10-31T06:11:52;-19.00;99.90
14485;DHT22;7328;50.812;4.422;2022-10-31T06:14:18;-17.10;99.90
14485;DHT22;7328;50.812;4.422;2022-10-31T06:16:43;-17.50;99.90
14485;DHT22;7328;50.812;4.422;2022-10-31T06:19:09;-16.70;99.90
14485;DHT22;7328;50.812;4.422;2022-10-31T06:21:35;-17.50;99.90
14485;DHT22;7328;50.812;4.422;2022-10-31T06:24:01;-17.40;99.90
14485;DHT22;7328;50.812;4.422;2022-10-31T06:26:26;-18.10;99.90
14485;DHT22;7328;50.812;4.422;2022-10-31T06:28:52;-17.20;99.90
14485;DHT22;7328;50.812;4.422;2022-10-31T06:31:18;-17.40;99.90
14485;DHT22;7328;50.812;4.422;2022-10-31T06:33:43;-17.80;99.90
14485;DHT22;7328;50.812;4.422;2022-10-31T06:36:10;-19.10;99.90
14485;DHT22;7328;50.812;4.422;2022-10-31T06:38:35;-16.80;99.90
14485;DHT22;7328;50.812;4.422;2022-10-31T06:41:05;-16.80;99.90
14485;DHT22;7328;50.812;4.422;2022-10-31T06:43:31;-18.10;99.90
14485;DHT22;7328;50.812;4.422;2022-10-31T06:45:57;-18.50;99.90
14485;DHT22;7328;50.812;4.422;2022-10-31T06:48:23;-18.60;99.90
14485;DHT22;7328;50.812;4.422;2022-10-31T06:50:49;-18.40;99.90
14485;DHT22;7328;50.812;4.422;2022-10-31T06:53:15;-17.90;99.90
14485;DHT22;7328;50.812;4.422;2022-10-31T06:55:44;-18.80;99.90
14485;DHT22;7328;50.812;4.422;2022-10-31T06:58:11;-17.90;99.90
14485;DHT22;7328;50.812;4.422;2022-10-31T07:00:37;-17.90;99.90
14485;DHT22;7328;50.812;4.422;2022-10-31T07:03:09;-17.90;99.90
14485;DHT22;7328;50.812;4.422;2022-10-31T07:05:35;-18.90;99.90
14485;DHT22;7328;50.812;4.422;2022-10-31T07:08:03;-18.90;99.90
14485;DHT22;7328;50.812;4.422;2022-10-31T07:10:31;-20.10;99.90
14485;DHT22;7328;50.812;4.422;2022-10-31T07:13:03;-17.90;99.90
14485;DHT22;7328;50.812;4.422;2022-10-31T07:15:36;-19.60;99.90
14485;DHT22;7328;50.812;4.422;2022-10-31T07:18:08;-17.90;99.90
14485;DHT22;7328;50.812;4.422;2022-10-31T07:20:35;-18.00;99.90
14485;DHT22;7328;50.812;4.422;2022-10-31T07:23:01;-18.80;99.90
14485;DHT22;7328;50.812;4.422;2022-10-31T07:25:28;-18.30;99.90
14485;DHT22;7328;50.812;4.422;2022-10-31T07:27:55;-19.00;99.90
14485;DHT22;7328;50.812;4.422;2022-10-31T07:30:21;-19.50;99.90
14485;DHT22;7328;50.812;4.422;2022-10-31T07:32:50;-17.80;99.90
14485;DHT22;7328;50.812;4.422;2022-10-31T07:35:27;-18.60;99.90
14485;DHT22;7328;50.812;4.422;2022-10-31T07:37:53;-15.90;99.90
14485;DHT22;7328;50.812;4.422;2022-10-31T07:40:21;-17.20;99.90
14485;DHT22;7328;50.812;4.422;2022-10-31T07:42:50;-15.80;99.90
14485;DHT22;7328;50.812;4.422;2022-10-31T07:45:18;-14.40;99.90
14485;DHT22;7328;50.812;4.422;2022-10-31T07:50:14;-17.20;99.90
14485;DHT22;7328;50.812;4.422;2022-10-31T07:52:39;-16.20;99.90
14485;DHT22;7328;50.812;4.422;2022-10-31T07:55:06;-14.60;99.90
14485;DHT22;7328;50.812;4.422;2022-10-31T07:57:32;-16.90;99.90
14485;DHT22;7328;50.812;4.422;2022-10-31T07:59:58;-18.90;99.90
14485;DHT22;7328;50.812;4.422;2022-10-31T08:02:24;-19.80;99.90
14485;DHT22;7328;50.812;4.422;2022-10-31T08:04:50;-18.20;99.90
14485;DHT22;7328;50.812;4.422;2022-10-31T08:07:17;-18.30;99.90
14485;DHT22;7328;50.812;4.422;2022-10-31T08:09:42;-16.10;99.90
14485;DHT22;7328;50.812;4.422;2022-10-31T08:12:08;-18.10;99.90
14485;DHT22;7328;50.812;4.422;2022-10-31T08:14:34;-14.90;99.90
14485;DHT22;7328;50.812;4.422;2022-10-31T08:17:00;-18.00;99.90
14485;DHT22;7328;50.812;4.422;2022-10-31T08:19:25;-19.80;99.90
14485;DHT22;7328;50.812;4.422;2022-10-31T08:21:52;-17.90;99.90
14485;DHT22;7328;50.812;4.422;2022-10-31T08:24:18;-13.70;99.90
14485;DHT22;7328;50.812;4.422;2022-10-31T08:26:44;-19.00;99.90
14485;DHT22;7328;50.812;4.422;2022-10-31T08:29:09;-16.50;99.90
14485;DHT22;7328;50.812;4.422;2022-10-31T08:31:35;-17.90;99.90
14485;DHT22;7328;50.812;4.422;2022-10-31T08:34:01;-15.50;99.90
14485;DHT22;7328;50.812;4.422;2022-10-31T08:36:28;-15.30;99.90
14485;DHT22;7328;50.812;4.422;2022-10-31T08:38:54;-14.60;99.90
14485;DHT22;7328;50.812;4.422;2022-10-31T08:41:21;-16.80;99.90
14485;DHT22;7328;50.812;4.422;2022-10-31T08:43:46;-14.20;99.90
14485;DHT22;7328;50.812;4.422;2022-10-31T08:46:12;-16.60;99.90
14485;DHT22;7328;50.812;4.422;2022-10-31T08:48:38;-19.50;99.90
14485;DHT22;7328;50.812;4.422;2022-10-31T08:51:04;-21.20;99.90
14485;DHT22;7328;50.812;4.422;2022-10-31T08:53:31;-21.00;99.90
14485;DHT22;7328;50.812;4.422;2022-10-31T08:55:56;-20.20;99.90
14485;DHT22;7328;50.812;4.422;2022-10-31T08:58:23;-18.20;99.90
14485;DHT22;7328;50.812;4.422;2022-10-31T09:00:52;-21.40;99.90
14485;DHT22;7328;50.812;4.422;2022-10-31T09:03:24;-22.20;99.90
14485;DHT22;7328;50.812;4.422;2022-10-31T09:05:50;-21.20;99.90
14485;DHT22;7328;50.812;4.422;2022-10-31T09:08:19;-21.70;99.90
14485;DHT22;7328;50.812;4.422;2022-10-31T09:10:45;-20.00;99.90
14485;DHT22;7328;50.812;4.422;2022-10-31T09:13:18;-23.90;99.90
14485;DHT22;7328;50.812;4.422;2022-10-31T09:15:46;-20.70;99.90
14485;DHT22;7328;50.812;4.422;2022-10-31T09:18:14;-20.20;99.90
14485;DHT22;7328;50.812;4.422;2022-10-31T09:20:41;-18.40;99.90
14485;DHT22;7328;50.812;4.422;2022-10-31T09:23:10;-18.20;99.90
14485;DHT22;7328;50.812;4.422;2022-10-31T09:25:36;-22.50;99.90
14485;DHT22;7328;50.812;4.422;2022-10-31T09:28:04;-19.10;99.90
14485;DHT22;7328;50.812;4.422;2022-10-31T09:30:32;-20.30;99.90
14485;DHT22;7328;50.812;4.422;2022-10-31T09:33:00;-22.90;99.90
14485;DHT22;7328;50.812;4.422;2022-10-31T09:35:26;-21.50;99.90
14485;DHT22;7328;50.812;4.422;2022-10-31T09:38:07;-19.60;99.90
14485;DHT22;7328;50.812;4.422;2022-10-31T09:40:40;-17.90;99.90
14485;DHT22;7328;50.812;4.422;2022-10-31T09:46:24;-18.60;99.90
14485;DHT22;7328;50.812;4.422;2022-10-31T09:52:03;-16.10;99.90
14485;DHT22;7328;50.812;4.422;2022-10-31T09:54:55;-16.70;99.90
14485;DHT22;7328;50.812;4.422;2022-10-31T09:57:28;-21.60;99.90
14485;DHT22;7328;50.812;4.422;2022-10-31T09:59:55;-19.80;99.90
14485;DHT22;7328;50.812;4.422;2022-10-31T10:02:33;-21.60;99.90
14485;DHT22;7328;50.812;4.422;2022-10-31T10:05:02;-26.10;99.90
14485;DHT22;7328;50.812;4.422;2022-10-31T10:10:13;-31.50;99.90
14485;DHT22;7328;50.812;4.422;2022-10-31T10:25:46;-40.00;99.90
14485;DHT22;7328;50.812;4.422;2022-10-31T10:28:41;-40.00;99.90
14485;DHT22;7328;50.812;4.422;2022-10-31T10:31:11;-40.00;99.90
14485;DHT22;7328;50.812;4.422;2022-10-31T10:36:37;-40.00;99.90
14485;DHT22;7328;50.812;4.422;2022-10-31T10:39:11;-40.00;99.90
14485;DHT22;7328;50.812;4.422;2022-10-31T10:41:43;-40.00;99.90
14485;DHT22;7328;50.812;4.422;2022-10-31T10:44:10;-40.00;99.90
14485;DHT22;7328;50.812;4.422;2022-10-31T10:46:51;-40.00;99.90
14485;DHT22;7328;50.812;4.422;2022-10-31T10:49:52;-40.00;99.90
14485;DHT22;7328;50.812;4.422;2022-10-31T10:55:30;-40.00;99.90
14485;DHT22;7328;50.812;4.422;2022-10-31T10:58:03;-40.00;99.90
14485;DHT22;7328;50.812;4.422;2022-10-31T11:00:30;-40.00;99.90
14485;DHT22;7328;50.812;4.422;2022-10-31T11:02:57;-40.00;99.90
14485;DHT22;7328;50.812;4.422;2022-10-31T11:05:48;-40.00;99.90
14485;DHT22;7328;50.812;4.422;2022-10-31T11:08:25;-40.00;99.90
14485;DHT22;7328;50.812;4.422;2022-10-31T11:13:42;-40.00;99.90
14485;DHT22;7328;50.812;4.422;2022-10-31T11:16:12;-40.00;99.90
14485;DHT22;7328;50.812;4.422;2022-10-31T11:18:45;-40.00;99.90
14485;DHT22;7328;50.812;4.422;2022-10-31T11:21:25;-40.00;99.90
14485;DHT22;7328;50.812;4.422;2022-10-31T11:26:37;-40.00;99.90
14485;DHT22;7328;50.812;4.422;2022-10-31T11:29:04;-40.00;99.90
14485;DHT22;7328;50.812;4.422;2022-10-31T11:31:32;-40.00;99.90
14485;DHT22;7328;50.812;4.422;2022-10-31T11:34:01;-40.00;99.90
14485;DHT22;7328;50.812;4.422;2022-10-31T11:36:32;-40.00;99.90
14485;DHT22;7328;50.812;4.422;2022-10-31T11:39:00;-40.00;99.90
14485;DHT22;7328;50.812;4.422;2022-10-31T11:41:34;-40.00;99.90
14485;DHT22;7328;50.812;4.422;2022-10-31T11:46:43;-40.00;99.90
14485;DHT22;7328;50.812;4.422;2022-10-31T11:49:20;-40.00;99.90
14485;DHT22;7328;50.812;4.422;2022-10-31T11:51:51;-40.00;99.90
14485;DHT22;7328;50.812;4.422;2022-10-31T11:54:28;-40.00;99.90
14485;DHT22;7328;50.812;4.422;2022-10-31T11:56:55;-40.00;99.90
14485;DHT22;7328;50.812;4.422;2022-10-31T11:59:29;-40.00;99.90
14485;DHT22;7328;50.812;4.422;2022-10-31T12:01:57;-40.00;99.90
14485;DHT22;7328;50.812;4.422;2022-10-31T12:04:44;-40.00;99.90
14485;DHT22;7328;50.812;4.422;2022-10-31T12:07:11;-40.00;99.90
14485;DHT22;7328;50.812;4.422;2022-10-31T12:09:38;-40.00;99.90
14485;DHT22;7328;50.812;4.422;2022-10-31T12:15:28;-40.00;99.90
14485;DHT22;7328;50.812;4.422;2022-10-31T12:23:19;-40.00;98.30
14485;DHT22;7328;50.812;4.422;2022-10-31T12:34:32;-40.00;93.10
14485;DHT22;7328;50.812;4.422;2022-10-31T12:45:19;-40.00;88.50
14485;DHT22;7328;50.812;4.422;2022-10-31T12:48:10;-40.00;91.60
14485;DHT22;7328;50.812;4.422;2022-10-31T12:53:22;-40.00;93.10
14485;DHT22;7328;50.812;4.422;2022-10-31T13:08:21;-40.00;88.30
14485;DHT22;7328;50.812;4.422;2022-10-31T13:13:04;-40.00;84.00
14485;DHT22;7328;50.812;4.422;2022-10-31T13:15:35;-40.00;79.60
14485;DHT22;7328;50.812;4.422;2022-10-31T13:18:12;-40.00;78.10
14485;DHT22;7328;50.812;4.422;2022-10-31T13:20:45;-40.00;79.60
14485;DHT22;7328;50.812;4.422;2022-10-31T13:25:54;-40.00;77.80
14485;DHT22;7328;50.812;4.422;2022-10-31T13:28:37;-40.00;78.80
14485;DHT22;7328;50.812;4.422;2022-10-31T13:31:06;-40.00;76.80
14485;DHT22;7328;50.812;4.422;2022-10-31T13:33:54;-40.00;79.40
14485;DHT22;7328;50.812;4.422;2022-10-31T13:36:43;-40.00;78.80
14485;DHT22;7328;50.812;4.422;2022-10-31T13:41:53;-40.00;75.50
14485;DHT22;7328;50.812;4.422;2022-10-31T13:44:26;-40.00;73.80
14485;DHT22;7328;50.812;4.422;2022-10-31T13:46:56;-40.00;76.60
14485;DHT22;7328;50.812;4.422;2022-10-31T13:49:35;-40.00;76.60
14485;DHT22;7328;50.812;4.422;2022-10-31T13:54:48;-40.00;77.80
14485;DHT22;7328;50.812;4.422;2022-10-31T13:57:41;-40.00;74.20
14485;DHT22;7328;50.812;4.422;2022-10-31T14:02:54;-40.00;81.50
14485;DHT22;7328;50.812;4.422;2022-10-31T14:05:32;-40.00;83.30
14485;DHT22;7328;50.812;4.422;2022-10-31T14:08:01;-40.00;87.80
14485;DHT22;7328;50.812;4.422;2022-10-31T14:10:37;-40.00;89.30
14485;DHT22;7328;50.812;4.422;2022-10-31T14:15:57;-40.00;92.20
14485;DHT22;7328;50.812;4.422;2022-10-31T14:18:42;-40.00;94.30
14485;DHT22;7328;50.812;4.422;2022-10-31T14:23:50;-40.00;92.70
14485;DHT22;7328;50.812;4.422;2022-10-31T14:26:30;-40.00;93.10
14485;DHT22;7328;50.812;4.422;2022-10-31T14:29:01;-40.00;93.30
14485;DHT22;7328;50.812;4.422;2022-10-31T14:31:39;-40.00;93.20
14485;DHT22;7328;50.812;4.422;2022-10-31T14:34:20;-40.00;93.20
14485;DHT22;7328;50.812;4.422;2022-10-31T14:47:20;-40.00;99.20
14485;DHT22;7328;50.812;4.422;2022-10-31T14:52:41;-40.00;99.90
14485;DHT22;7328;50.812;4.422;2022-10-31T14:55:13;-40.00;99.90
14485;DHT22;7328;50.812;4.422;2022-10-31T14:57:48;-40.00;99.90
14485;DHT22;7328;50.812;4.422;2022-10-31T15:00:20;-40.00;99.90
14485;DHT22;7328;50.812;4.422;2022-10-31T15:05:27;-40.00;99.90
14485;DHT22;7328;50.812;4.422;2022-10-31T15:07:55;-40.00;99.90
14485;DHT22;7328;50.812;4.422;2022-10-31T15:10:31;-40.00;99.90
14485;DHT22;7328;50.812;4.422;2022-10-31T15:13:20;-40.00;99.90
14485;DHT22;7328;50.812;4.422;2022-10-31T15:15:47;-40.00;99.90
14485;DHT22;7328;50.812;4.422;2022-10-31T15:18:21;-40.00;99.90
14485;DHT22;7328;50.812;4.422;2022-10-31T15:20:47;-40.00;99.90
14485;DHT22;7328;50.812;4.422;2022-10-31T15:23:27;-40.00;99.90
14485;DHT22;7328;50.812;4.422;2022-10-31T15:26:04;-40.00;99.90
14485;DHT22;7328;50.812;4.422;2022-10-31T15:28:30;-40.00;99.90
14485;DHT22;7328;50.812;4.422;2022-10-31T15:30:58;-40.00;99.90
14485;DHT22;7328;50.812;4.422;2022-10-31T15:33:26;-40.00;99.90
14485;DHT22;7328;50.812;4.422;2022-10-31T15:35:57;-40.00;99.90
14485;DHT22;7328;50.812;4.422;2022-10-31T15:38:25;-40.00;99.90
14485;DHT22;7328;50.812;4.422;2022-10-31T15:41:00;-40.00;99.90
14485;DHT22;7328;50.812;4.422;2022-10-31T15:43:35;-40.00;99.90
14485;DHT22;7328;50.812;4.422;2022-10-31T15:46:02;-40.00;99.90
14485;DHT22;7328;50.812;4.422;2022-10-31T15:48:29;-40.00;99.90
14485;DHT22;7328;50.812;4.422;2022-10-31T15:50:57;-40.00;99.90
14485;DHT22;7328;50.812;4.422;2022-10-31T15:53:43;-40.00;99.90
14485;DHT22;7328;50.812;4.422;2022-10-31T15:56:13;-40.00;99.90
14485;DHT22;7328;50.812;4.422;2022-10-31T15:58:46;-40.00;99.90
14485;DHT22;7328;50.812;4.422;2022-10-31T16:01:28;-40.00;99.90
14485;DHT22;7328;50.812;4.422;2022-10-31T16:06:38;-40.00;99.90
14485;DHT22;7328;50.812;4.422;2022-10-31T16:09:22;-40.00;99.90
14485;DHT22;7328;50.812;4.422;2022-10-31T16:11:48;-40.00;99.90
14485;DHT22;7328;50.812;4.422;2022-10-31T16:14:24;-40.00;99.90
14485;DHT22;7328;50.812;4.422;2022-10-31T16:16:55;-40.00;99.90
14485;DHT22;7328;50.812;4.422;2022-10-31T16:19:36;-40.00;99.90
14485;DHT22;7328;50.812;4.422;2022-10-31T16:22:06;-40.00;99.90
14485;DHT22;7328;50.812;4.422;2022-10-31T16:24:42;-40.00;99.90
14485;DHT22;7328;50.812;4.422;2022-10-31T16:27:21;-40.00;99.90
14485;DHT22;7328;50.812;4.422;2022-10-31T16:29:54;-40.00;99.90
14485;DHT22;7328;50.812;4.422;2022-10-31T16:32:55;-40.00;99.90
14485;DHT22;7328;50.812;4.422;2022-10-31T16:35:35;-40.00;99.90
14485;DHT22;7328;50.812;4.422;2022-10-31T16:38:01;-40.00;99.90
14485;DHT22;7328;50.812;4.422;2022-10-31T16:40:27;-40.00;99.90
14485;DHT22;7328;50.812;4.422;2022-10-31T16:42:55;-40.00;99.90
14485;DHT22;7328;50.812;4.422;2022-10-31T16:45:24;-40.00;99.90
14485;DHT22;7328;50.812;4.422;2022-10-31T16:47:50;-40.00;99.90
14485;DHT22;7328;50.812;4.422;2022-10-31T16:50:24;-40.00;99.90
14485;DHT22;7328;50.812;4.422;2022-10-31T16:52:52;-31.20;99.90
14485;DHT22;7328;50.812;4.422;2022-10-31T16:55:19;-40.00;99.90
14485;DHT22;7328;50.812;4.422;2022-10-31T16:57:48;-40.00;99.90
14485;DHT22;7328;50.812;4.422;2022-10-31T17:00:21;-40.00;99.90
14485;DHT22;7328;50.812;4.422;2022-10-31T17:02:48;-40.00;99.90
14485;DHT22;7328;50.812;4.422;2022-10-31T17:05:16;-40.00;99.90
14485;DHT22;7328;50.812;4.422;2022-10-31T17:07:43;-40.00;99.90
14485;DHT22;7328;50.812;4.422;2022-10-31T17:10:11;-40.00;99.90
14485;DHT22;7328;50.812;4.422;2022-10-31T17:12:42;-40.00;99.90
14485;DHT22;7328;50.812;4.422;2022-10-31T17:15:24;-38.90;99.90
14485;DHT22;7328;50.812;4.422;2022-10-31T17:17:51;-39.70;99.90
14485;DHT22;7328;50.812;4.422;2022-10-31T17:20:23;-35.30;99.90
14485;DHT22;7328;50.812;4.422;2022-10-31T17:22:49;-37.30;99.90
14485;DHT22;7328;50.812;4.422;2022-10-31T17:25:17;-27.50;99.90
14485;DHT22;7328;50.812;4.422;2022-10-31T17:27:44;-20.80;99.90
14485;DHT22;7328;50.812;4.422;2022-10-31T17:30:11;-26.30;99.90
14485;DHT22;7328;50.812;4.422;2022-10-31T17:32:38;-20.60;99.90
14485;DHT22;7328;50.812;4.422;2022-10-31T17:35:04;-28.10;99.90
14485;DHT22;7328;50.812;4.422;2022-10-31T17:37:30;-26.20;99.90
14485;DHT22;7328;50.812;4.422;2022-10-31T17:39:55;-25.70;99.90
14485;DHT22;7328;50.812;4.422;2022-10-31T17:42:21;-25.40;99.90
14485;DHT22;7328;50.812;4.422;2022-10-31T17:44:47;-31.40;99.90
14485;DHT22;7328;50.812;4.422;2022-10-31T17:47:12;-39.80;99.90
14485;DHT22;7328;50.812;4.422;2022-10-31T17:49:38;-32.70;99.90
14485;DHT22;7328;50.812;4.422;2022-10-31T17:52:04;-27.40;99.90
14485;DHT22;7328;50.812;4.422;2022-10-31T17:54:30;-29.40;99.90
14485;DHT22;7328;50.812;4.422;2022-10-31T17:56:56;-40.00;99.90
14485;DHT22;7328;50.812;4.422;2022-10-31T17:59:23;-40.00;99.90
14485;DHT22;7328;50.812;4.422;2022-10-31T18:01:49;-40.00;99.90
14485;DHT22;7328;50.812;4.422;2022-10-31T18:04:15;-40.00;99.90
14485;DHT22;7328;50.812;4.422;2022-10-31T18:06:41;-40.00;99.90
14485;DHT22;7328;50.812;4.422;2022-10-31T18:09:06;-40.00;99.90
14485;DHT22;7328;50.812;4.422;2022-10-31T18:11:32;-40.00;99.90
14485;DHT22;7328;50.812;4.422;2022-10-31T18:13:58;-40.00;99.90
14485;DHT22;7328;50.812;4.422;2022-10-31T18:16:25;-40.00;99.90
14485;DHT22;7328;50.812;4.422;2022-10-31T18:18:52;-40.00;99.90
14485;DHT22;7328;50.812;4.422;2022-10-31T18:21:19;-40.00;99.90
14485;DHT22;7328;50.812;4.422;2022-10-31T18:23:45;-35.80;99.90